San Rafael, Argentina
Current Conditions -  °F | °C
As of 6:00 AM on Friday 24 Oct 2014 (Local Time) from SAME Reporting Station
Clear Clear  
Wind Chill: 23°   Ceiling: Unl
Heat Index: 23°   Visibility: 6mi
Dew Point: 14°   Wind: 13mph
Humidity: 57%   Direction: 180°S
Pressure: 29.97"   Gusts: NA
Location:  34.62°S, 68.34°W
Report Text: SAME 240900Z 18011KT CAVOK 23/14 Q1015
Loading
Personal Weather Stations






























Interactive Weather Map
Tropical Storm Tracking
New forecast layout! Learn more

10-Day Weather Forecast

Advertisements
Track Severe Weather on mobile